Main page
METAR-TAF:

METAR-TAF

Airports :

Stornoway, Scotland

Stornoway Airport

latitude: 58-13N, longitude: 006-19W, elevation: 9 m

Current weather observation

The report was made 15 minutes ago, at 13:20 UTC
Wind 10 kt from the West
Temperature 12°C
Humidity 82%
Pressure 1006 hPa
Visibility 10 km or more
Few clouds at a height of 800 ft
Scattered clouds at a height of 1600 ft

METAR: EGPO 221320Z 28010KT 9999 FEW008 SCT016 12/09 Q1006

Time: 14:35 (13:35 UTC)

Forecast

The report was made 2 hours and 36 minutes ago, at 10:59 UTC
Forecast valid from 22 at 12 UTC to 22 at 21 UTC
Wind 10 kt from the West/Northwest
Visibility 10 km or more
Scattered clouds at a height of 1000 ft
Probability 40% :
Temporary
from 22 at 14 UTC to 22 at 19 UTC
Broken clouds at a height of 800 ft
Becoming
from 22 at 17 UTC to 22 at 20 UTC
Wind 9 kt from the Southwest

TAF: EGPO 221059Z 2212/2221 29010KT 9999 SCT010 PROB40 TEMPO 2214/2219 BKN008 BECMG 2217/2220 22009KT

Weather observations and forecasts of more than 4000 airports (METAR and TAF reports).

The available stations are represented by yellow and red dots on the map.

Hover mouse over dot to see the name of the station.

Then click to see weather observations and forecasts.

To change the map : click on the green buttons with a black cross to zoom in, on the green button with a dash to zoom out, or on the green arrows for adjacent maps.


METAR-TAF: